sensor_id;sensor_type;location;lat;lon;timestamp;temperature;humidity
52919;DHT22;38793;52.690;6.812;2023-05-07T00:01:06;14.10;99.90
52919;DHT22;38793;52.690;6.812;2023-05-07T00:03:32;14.00;99.90
52919;DHT22;38793;52.690;6.812;2023-05-07T00:05:58;14.10;99.90
52919;DHT22;38793;52.690;6.812;2023-05-07T00:08:23;14.10;99.90
52919;DHT22;38793;52.690;6.812;2023-05-07T00:10:49;14.00;99.90
52919;DHT22;38793;52.690;6.812;2023-05-07T00:13:15;14.00;99.90
52919;DHT22;38793;52.690;6.812;2023-05-07T00:15:40;14.00;99.90
52919;DHT22;38793;52.690;6.812;2023-05-07T00:18:06;14.00;99.90
52919;DHT22;38793;52.690;6.812;2023-05-07T00:20:32;14.00;99.90
52919;DHT22;38793;52.690;6.812;2023-05-07T00:22:57;14.00;99.90
52919;DHT22;38793;52.690;6.812;2023-05-07T00:25:23;14.00;99.90
52919;DHT22;38793;52.690;6.812;2023-05-07T00:27:49;14.00;99.90
52919;DHT22;38793;52.690;6.812;2023-05-07T00:30:14;14.00;99.90
52919;DHT22;38793;52.690;6.812;2023-05-07T00:32:40;13.90;99.90
52919;DHT22;38793;52.690;6.812;2023-05-07T00:35:06;13.90;99.90
52919;DHT22;38793;52.690;6.812;2023-05-07T00:37:32;13.90;99.90
52919;DHT22;38793;52.690;6.812;2023-05-07T00:39:58;13.90;99.90
52919;DHT22;38793;52.690;6.812;2023-05-07T00:42:24;13.80;99.90
52919;DHT22;38793;52.690;6.812;2023-05-07T00:44:49;13.90;99.90
52919;DHT22;38793;52.690;6.812;2023-05-07T00:47:15;13.80;99.90
52919;DHT22;38793;52.690;6.812;2023-05-07T00:49:43;13.80;99.90
52919;DHT22;38793;52.690;6.812;2023-05-07T00:52:14;13.80;99.90
52919;DHT22;38793;52.690;6.812;2023-05-07T00:54:41;13.70;99.90
52919;DHT22;38793;52.690;6.812;2023-05-07T00:57:07;13.70;99.90
52919;DHT22;38793;52.690;6.812;2023-05-07T00:59:34;13.60;99.90
52919;DHT22;38793;52.690;6.812;2023-05-07T01:02:00;13.60;99.90
52919;DHT22;38793;52.690;6.812;2023-05-07T01:04:26;13.60;99.90
52919;DHT22;38793;52.690;6.812;2023-05-07T01:06:52;13.50;99.90
52919;DHT22;38793;52.690;6.812;2023-05-07T01:09:19;13.50;99.90
52919;DHT22;38793;52.690;6.812;2023-05-07T01:11:47;13.40;99.90
52919;DHT22;38793;52.690;6.812;2023-05-07T01:14:13;13.40;99.90
52919;DHT22;38793;52.690;6.812;2023-05-07T01:16:38;13.30;99.90
52919;DHT22;38793;52.690;6.812;2023-05-07T01:19:06;13.30;99.90
52919;DHT22;38793;52.690;6.812;2023-05-07T01:21:33;13.30;99.90
52919;DHT22;38793;52.690;6.812;2023-05-07T01:24:00;13.20;99.90
52919;DHT22;38793;52.690;6.812;2023-05-07T01:26:26;13.10;99.90
52919;DHT22;38793;52.690;6.812;2023-05-07T01:28:51;13.10;99.90
52919;DHT22;38793;52.690;6.812;2023-05-07T01:31:17;13.00;99.90
52919;DHT22;38793;52.690;6.812;2023-05-07T01:33:44;13.00;99.90
52919;DHT22;38793;52.690;6.812;2023-05-07T01:36:11;12.90;99.90
52919;DHT22;38793;52.690;6.812;2023-05-07T01:38:39;12.90;99.90
52919;DHT22;38793;52.690;6.812;2023-05-07T01:41:06;12.90;99.90
52919;DHT22;38793;52.690;6.812;2023-05-07T01:43:32;12.80;99.90
52919;DHT22;38793;52.690;6.812;2023-05-07T01:45:59;12.80;99.90
52919;DHT22;38793;52.690;6.812;2023-05-07T01:48:26;12.70;99.90
52919;DHT22;38793;52.690;6.812;2023-05-07T01:50:52;12.70;99.90
52919;DHT22;38793;52.690;6.812;2023-05-07T01:53:18;12.70;99.90
52919;DHT22;38793;52.690;6.812;2023-05-07T01:55:44;12.60;99.90
52919;DHT22;38793;52.690;6.812;2023-05-07T01:58:10;12.60;99.90
52919;DHT22;38793;52.690;6.812;2023-05-07T02:00:36;12.50;99.90
52919;DHT22;38793;52.690;6.812;2023-05-07T02:03:01;12.60;99.90
52919;DHT22;38793;52.690;6.812;2023-05-07T02:05:27;12.50;99.90
52919;DHT22;38793;52.690;6.812;2023-05-07T02:07:52;12.50;99.90
52919;DHT22;38793;52.690;6.812;2023-05-07T02:10:18;12.40;99.90
52919;DHT22;38793;52.690;6.812;2023-05-07T02:12:44;12.40;99.90
52919;DHT22;38793;52.690;6.812;2023-05-07T02:15:10;12.40;99.90
52919;DHT22;38793;52.690;6.812;2023-05-07T02:20:03;12.30;99.90
52919;DHT22;38793;52.690;6.812;2023-05-07T02:22:29;12.30;99.90
52919;DHT22;38793;52.690;6.812;2023-05-07T02:24:55;12.30;99.90
52919;DHT22;38793;52.690;6.812;2023-05-07T02:27:21;12.30;99.90
52919;DHT22;38793;52.690;6.812;2023-05-07T02:29:46;12.20;99.90
52919;DHT22;38793;52.690;6.812;2023-05-07T02:32:12;12.20;99.90
52919;DHT22;38793;52.690;6.812;2023-05-07T02:34:37;12.20;99.90
52919;DHT22;38793;52.690;6.812;2023-05-07T02:37:03;12.10;99.90
52919;DHT22;38793;52.690;6.812;2023-05-07T02:39:29;12.10;99.90
52919;DHT22;38793;52.690;6.812;2023-05-07T02:41:54;12.10;99.90
52919;DHT22;38793;52.690;6.812;2023-05-07T02:44:20;12.10;99.90
52919;DHT22;38793;52.690;6.812;2023-05-07T02:46:45;12.00;99.90
52919;DHT22;38793;52.690;6.812;2023-05-07T02:49:11;12.00;99.90
52919;DHT22;38793;52.690;6.812;2023-05-07T02:51:37;12.00;99.90
52919;DHT22;38793;52.690;6.812;2023-05-07T02:54:02;11.90;99.90
52919;DHT22;38793;52.690;6.812;2023-05-07T02:56:28;12.00;99.90
52919;DHT22;38793;52.690;6.812;2023-05-07T02:58:53;11.90;99.90
52919;DHT22;38793;52.690;6.812;2023-05-07T03:01:19;11.90;99.90
52919;DHT22;38793;52.690;6.812;2023-05-07T03:03:46;11.80;99.90
52919;DHT22;38793;52.690;6.812;2023-05-07T03:06:11;11.80;99.90
52919;DHT22;38793;52.690;6.812;2023-05-07T03:08:37;11.80;99.90
52919;DHT22;38793;52.690;6.812;2023-05-07T03:11:02;11.80;99.90
52919;DHT22;38793;52.690;6.812;2023-05-07T03:13:28;11.80;99.90
52919;DHT22;38793;52.690;6.812;2023-05-07T03:15:54;11.80;99.90
52919;DHT22;38793;52.690;6.812;2023-05-07T03:18:19;11.70;99.90
52919;DHT22;38793;52.690;6.812;2023-05-07T03:20:45;11.70;99.90
52919;DHT22;38793;52.690;6.812;2023-05-07T03:23:11;11.70;99.90
52919;DHT22;38793;52.690;6.812;2023-05-07T03:25:37;11.70;99.90
52919;DHT22;38793;52.690;6.812;2023-05-07T03:28:02;11.70;99.90
52919;DHT22;38793;52.690;6.812;2023-05-07T03:30:28;11.70;99.90
52919;DHT22;38793;52.690;6.812;2023-05-07T03:32:53;11.70;99.90
52919;DHT22;38793;52.690;6.812;2023-05-07T03:35:19;11.60;99.90
52919;DHT22;38793;52.690;6.812;2023-05-07T03:37:45;11.70;99.90
52919;DHT22;38793;52.690;6.812;2023-05-07T03:40:11;11.70;99.90
52919;DHT22;38793;52.690;6.812;2023-05-07T03:42:37;11.70;99.90
52919;DHT22;38793;52.690;6.812;2023-05-07T03:45:03;11.70;99.90
52919;DHT22;38793;52.690;6.812;2023-05-07T03:47:29;11.70;99.90
52919;DHT22;38793;52.690;6.812;2023-05-07T03:49:55;11.70;99.90
52919;DHT22;38793;52.690;6.812;2023-05-07T03:52:21;11.70;99.90
52919;DHT22;38793;52.690;6.812;2023-05-07T03:54:51;11.60;99.90
52919;DHT22;38793;52.690;6.812;2023-05-07T03:57:17;11.70;99.90
52919;DHT22;38793;52.690;6.812;2023-05-07T03:59:43;11.60;99.90
52919;DHT22;38793;52.690;6.812;2023-05-07T04:02:08;11.60;99.90
52919;DHT22;38793;52.690;6.812;2023-05-07T04:04:34;11.60;99.90
52919;DHT22;38793;52.690;6.812;2023-05-07T04:06:59;11.60;99.90
52919;DHT22;38793;52.690;6.812;2023-05-07T04:09:25;11.60;99.90
52919;DHT22;38793;52.690;6.812;2023-05-07T04:11:51;11.60;99.90
52919;DHT22;38793;52.690;6.812;2023-05-07T04:14:17;11.60;99.90
52919;DHT22;38793;52.690;6.812;2023-05-07T04:16:42;11.60;99.90
52919;DHT22;38793;52.690;6.812;2023-05-07T04:19:08;11.60;99.90
52919;DHT22;38793;52.690;6.812;2023-05-07T04:21:33;11.60;99.90
52919;DHT22;38793;52.690;6.812;2023-05-07T04:23:59;11.60;99.90
52919;DHT22;38793;52.690;6.812;2023-05-07T04:26:25;11.50;99.90
52919;DHT22;38793;52.690;6.812;2023-05-07T04:28:50;11.60;99.90
52919;DHT22;38793;52.690;6.812;2023-05-07T04:31:16;11.60;99.90
52919;DHT22;38793;52.690;6.812;2023-05-07T04:33:41;11.60;99.90
52919;DHT22;38793;52.690;6.812;2023-05-07T04:36:07;11.60;99.90
52919;DHT22;38793;52.690;6.812;2023-05-07T04:38:33;11.60;99.90
52919;DHT22;38793;52.690;6.812;2023-05-07T04:41:03;11.60;99.90
52919;DHT22;38793;52.690;6.812;2023-05-07T04:43:29;11.60;99.90
52919;DHT22;38793;52.690;6.812;2023-05-07T04:45:55;11.60;99.90
52919;DHT22;38793;52.690;6.812;2023-05-07T04:48:20;11.60;99.90
52919;DHT22;38793;52.690;6.812;2023-05-07T04:50:49;11.60;99.90
52919;DHT22;38793;52.690;6.812;2023-05-07T04:53:16;11.60;99.90
52919;DHT22;38793;52.690;6.812;2023-05-07T04:55:42;11.60;99.90
52919;DHT22;38793;52.690;6.812;2023-05-07T04:58:08;11.60;99.90
52919;DHT22;38793;52.690;6.812;2023-05-07T05:00:34;11.60;99.90
52919;DHT22;38793;52.690;6.812;2023-05-07T05:02:59;11.70;99.90
52919;DHT22;38793;52.690;6.812;2023-05-07T05:05:25;11.60;99.90
52919;DHT22;38793;52.690;6.812;2023-05-07T05:07:51;11.70;99.90
52919;DHT22;38793;52.690;6.812;2023-05-07T05:10:17;11.70;99.90
52919;DHT22;38793;52.690;6.812;2023-05-07T05:12:43;11.70;99.90
52919;DHT22;38793;52.690;6.812;2023-05-07T05:15:09;11.70;99.90
52919;DHT22;38793;52.690;6.812;2023-05-07T05:17:35;11.70;99.90
52919;DHT22;38793;52.690;6.812;2023-05-07T05:20:02;11.70;99.90
52919;DHT22;38793;52.690;6.812;2023-05-07T05:22:27;11.80;99.90
52919;DHT22;38793;52.690;6.812;2023-05-07T05:24:55;11.80;99.90
52919;DHT22;38793;52.690;6.812;2023-05-07T05:27:20;11.80;99.90
52919;DHT22;38793;52.690;6.812;2023-05-07T05:29:46;11.80;99.90
52919;DHT22;38793;52.690;6.812;2023-05-07T05:32:11;11.90;99.90
52919;DHT22;38793;52.690;6.812;2023-05-07T05:34:37;11.90;99.90
52919;DHT22;38793;52.690;6.812;2023-05-07T05:37:02;11.90;99.90
52919;DHT22;38793;52.690;6.812;2023-05-07T05:39:28;11.90;99.90
52919;DHT22;38793;52.690;6.812;2023-05-07T05:41:54;11.90;99.90
52919;DHT22;38793;52.690;6.812;2023-05-07T05:44:19;11.90;99.90
52919;DHT22;38793;52.690;6.812;2023-05-07T05:46:45;11.90;99.90
52919;DHT22;38793;52.690;6.812;2023-05-07T05:49:11;12.00;99.90
52919;DHT22;38793;52.690;6.812;2023-05-07T05:51:36;12.00;99.90
52919;DHT22;38793;52.690;6.812;2023-05-07T05:54:02;12.00;99.90
52919;DHT22;38793;52.690;6.812;2023-05-07T05:56:27;12.00;99.90
52919;DHT22;38793;52.690;6.812;2023-05-07T05:58:53;12.10;99.90
52919;DHT22;38793;52.690;6.812;2023-05-07T06:01:19;12.10;99.90
52919;DHT22;38793;52.690;6.812;2023-05-07T06:03:44;12.10;99.90
52919;DHT22;38793;52.690;6.812;2023-05-07T06:06:10;12.10;99.90
52919;DHT22;38793;52.690;6.812;2023-05-07T06:08:36;12.10;99.90
52919;DHT22;38793;52.690;6.812;2023-05-07T06:11:02;12.10;99.90
52919;DHT22;38793;52.690;6.812;2023-05-07T06:13:28;12.10;99.90
52919;DHT22;38793;52.690;6.812;2023-05-07T06:15:53;12.10;99.90
52919;DHT22;38793;52.690;6.812;2023-05-07T06:18:19;12.20;99.90
52919;DHT22;38793;52.690;6.812;2023-05-07T06:20:45;12.20;99.90
52919;DHT22;38793;52.690;6.812;2023-05-07T06:23:10;12.20;99.90
52919;DHT22;38793;52.690;6.812;2023-05-07T06:25:36;12.20;99.90
52919;DHT22;38793;52.690;6.812;2023-05-07T06:28:01;12.20;99.90
52919;DHT22;38793;52.690;6.812;2023-05-07T06:30:27;12.20;99.90
52919;DHT22;38793;52.690;6.812;2023-05-07T06:32:52;12.20;99.90
52919;DHT22;38793;52.690;6.812;2023-05-07T06:35:18;12.20;99.90
52919;DHT22;38793;52.690;6.812;2023-05-07T06:37:44;12.20;99.90
52919;DHT22;38793;52.690;6.812;2023-05-07T06:40:10;12.20;99.90
52919;DHT22;38793;52.690;6.812;2023-05-07T06:42:36;12.20;99.90
52919;DHT22;38793;52.690;6.812;2023-05-07T06:45:03;12.30;99.90
52919;DHT22;38793;52.690;6.812;2023-05-07T06:47:29;12.30;99.90
52919;DHT22;38793;52.690;6.812;2023-05-07T06:49:54;12.30;99.90
52919;DHT22;38793;52.690;6.812;2023-05-07T06:52:20;12.40;99.90
52919;DHT22;38793;52.690;6.812;2023-05-07T06:54:46;12.40;99.90
52919;DHT22;38793;52.690;6.812;2023-05-07T06:57:11;12.50;99.90
52919;DHT22;38793;52.690;6.812;2023-05-07T06:59:37;12.50;99.90
52919;DHT22;38793;52.690;6.812;2023-05-07T07:02:02;12.50;99.90
52919;DHT22;38793;52.690;6.812;2023-05-07T07:04:28;12.50;99.90
52919;DHT22;38793;52.690;6.812;2023-05-07T07:06:54;12.60;99.90
52919;DHT22;38793;52.690;6.812;2023-05-07T07:09:19;12.60;99.90
52919;DHT22;38793;52.690;6.812;2023-05-07T07:11:45;12.60;99.90
52919;DHT22;38793;52.690;6.812;2023-05-07T07:14:10;12.60;99.90
52919;DHT22;38793;52.690;6.812;2023-05-07T07:16:36;12.60;99.90
52919;DHT22;38793;52.690;6.812;2023-05-07T07:19:02;12.70;99.90
52919;DHT22;38793;52.690;6.812;2023-05-07T07:21:27;12.70;99.90
52919;DHT22;38793;52.690;6.812;2023-05-07T07:23:53;12.70;99.90
52919;DHT22;38793;52.690;6.812;2023-05-07T07:26:18;12.70;99.90
52919;DHT22;38793;52.690;6.812;2023-05-07T07:28:47;12.70;99.90
52919;DHT22;38793;52.690;6.812;2023-05-07T07:31:13;12.70;99.90
52919;DHT22;38793;52.690;6.812;2023-05-07T07:33:39;12.80;99.90
52919;DHT22;38793;52.690;6.812;2023-05-07T07:36:05;12.80;99.90
52919;DHT22;38793;52.690;6.812;2023-05-07T07:38:31;13.00;99.90
52919;DHT22;38793;52.690;6.812;2023-05-07T07:40:57;13.00;99.90
52919;DHT22;38793;52.690;6.812;2023-05-07T07:43:22;13.10;99.90
52919;DHT22;38793;52.690;6.812;2023-05-07T07:45:48;13.20;99.90
52919;DHT22;38793;52.690;6.812;2023-05-07T07:48:14;13.30;99.90
52919;DHT22;38793;52.690;6.812;2023-05-07T07:50:39;13.30;99.90
52919;DHT22;38793;52.690;6.812;2023-05-07T07:53:05;13.30;99.90
52919;DHT22;38793;52.690;6.812;2023-05-07T07:55:30;13.30;99.90
52919;DHT22;38793;52.690;6.812;2023-05-07T07:57:57;13.40;99.90
52919;DHT22;38793;52.690;6.812;2023-05-07T08:00:23;13.50;99.90
52919;DHT22;38793;52.690;6.812;2023-05-07T08:02:48;13.50;99.90
52919;DHT22;38793;52.690;6.812;2023-05-07T08:05:14;13.60;99.90
52919;DHT22;38793;52.690;6.812;2023-05-07T08:07:40;13.70;99.90
52919;DHT22;38793;52.690;6.812;2023-05-07T08:10:06;13.80;99.90
52919;DHT22;38793;52.690;6.812;2023-05-07T08:12:32;13.80;99.90
52919;DHT22;38793;52.690;6.812;2023-05-07T08:14:57;13.80;99.90
52919;DHT22;38793;52.690;6.812;2023-05-07T08:17:23;13.90;99.90
52919;DHT22;38793;52.690;6.812;2023-05-07T08:19:49;14.00;99.90
52919;DHT22;38793;52.690;6.812;2023-05-07T08:22:15;14.10;99.90
52919;DHT22;38793;52.690;6.812;2023-05-07T08:24:41;14.30;99.90
52919;DHT22;38793;52.690;6.812;2023-05-07T08:27:06;14.50;99.90
52919;DHT22;38793;52.690;6.812;2023-05-07T08:29:32;14.60;99.90
52919;DHT22;38793;52.690;6.812;2023-05-07T08:31:57;14.80;99.90
52919;DHT22;38793;52.690;6.812;2023-05-07T08:34:23;14.90;99.90
52919;DHT22;38793;52.690;6.812;2023-05-07T08:36:48;15.00;99.90
52919;DHT22;38793;52.690;6.812;2023-05-07T08:39:17;15.20;99.90
52919;DHT22;38793;52.690;6.812;2023-05-07T08:41:46;15.20;99.90
52919;DHT22;38793;52.690;6.812;2023-05-07T08:44:14;15.20;99.90
52919;DHT22;38793;52.690;6.812;2023-05-07T08:46:41;15.20;99.90
52919;DHT22;38793;52.690;6.812;2023-05-07T08:49:07;15.20;99.90
52919;DHT22;38793;52.690;6.812;2023-05-07T08:51:34;15.20;99.90
52919;DHT22;38793;52.690;6.812;2023-05-07T08:54:01;15.30;99.90
52919;DHT22;38793;52.690;6.812;2023-05-07T08:56:27;15.50;99.90
52919;DHT22;38793;52.690;6.812;2023-05-07T08:58:52;15.70;99.90
52919;DHT22;38793;52.690;6.812;2023-05-07T09:01:21;15.80;99.90
52919;DHT22;38793;52.690;6.812;2023-05-07T09:03:49;15.80;99.90
52919;DHT22;38793;52.690;6.812;2023-05-07T09:06:15;15.90;99.90
52919;DHT22;38793;52.690;6.812;2023-05-07T09:08:43;16.00;99.90
52919;DHT22;38793;52.690;6.812;2023-05-07T09:11:11;16.20;99.90
52919;DHT22;38793;52.690;6.812;2023-05-07T09:13:38;16.40;99.90
52919;DHT22;38793;52.690;6.812;2023-05-07T09:16:10;16.60;99.90
52919;DHT22;38793;52.690;6.812;2023-05-07T09:18:44;16.80;99.90
52919;DHT22;38793;52.690;6.812;2023-05-07T09:21:19;16.80;99.90
52919;DHT22;38793;52.690;6.812;2023-05-07T09:23:45;16.90;99.90
52919;DHT22;38793;52.690;6.812;2023-05-07T09:26:10;17.00;99.90
52919;DHT22;38793;52.690;6.812;2023-05-07T09:28:43;17.10;99.90
52919;DHT22;38793;52.690;6.812;2023-05-07T09:31:10;17.20;99.90
52919;DHT22;38793;52.690;6.812;2023-05-07T09:36:11;17.30;99.90
52919;DHT22;38793;52.690;6.812;2023-05-07T09:38:37;17.40;99.90
52919;DHT22;38793;52.690;6.812;2023-05-07T09:43:37;17.60;99.90
52919;DHT22;38793;52.690;6.812;2023-05-07T09:46:13;17.50;99.90
52919;DHT22;38793;52.690;6.812;2023-05-07T09:48:41;17.50;99.90
52919;DHT22;38793;52.690;6.812;2023-05-07T09:51:28;17.50;99.90
52919;DHT22;38793;52.690;6.812;2023-05-07T09:53:56;17.60;99.90
52919;DHT22;38793;52.690;6.812;2023-05-07T09:56:22;17.70;99.90
52919;DHT22;38793;52.690;6.812;2023-05-07T09:58:49;17.80;99.90
52919;DHT22;38793;52.690;6.812;2023-05-07T10:01:17;17.80;99.90
52919;DHT22;38793;52.690;6.812;2023-05-07T10:03:44;18.00;99.90
52919;DHT22;38793;52.690;6.812;2023-05-07T10:06:12;18.10;99.90
52919;DHT22;38793;52.690;6.812;2023-05-07T10:08:38;18.20;99.90
52919;DHT22;38793;52.690;6.812;2023-05-07T10:11:04;18.30;99.90
52919;DHT22;38793;52.690;6.812;2023-05-07T10:13:34;18.40;99.90
52919;DHT22;38793;52.690;6.812;2023-05-07T10:16:03;18.50;99.90
52919;DHT22;38793;52.690;6.812;2023-05-07T10:18:32;18.60;99.90
52919;DHT22;38793;52.690;6.812;2023-05-07T10:21:22;18.70;99.90
52919;DHT22;38793;52.690;6.812;2023-05-07T10:23:53;18.70;99.90
52919;DHT22;38793;52.690;6.812;2023-05-07T10:26:23;18.70;99.90
52919;DHT22;38793;52.690;6.812;2023-05-07T10:28:56;18.80;99.90
52919;DHT22;38793;52.690;6.812;2023-05-07T10:34:01;18.90;99.90
52919;DHT22;38793;52.690;6.812;2023-05-07T10:36:28;19.00;99.90
52919;DHT22;38793;52.690;6.812;2023-05-07T10:38:54;19.10;99.90
52919;DHT22;38793;52.690;6.812;2023-05-07T10:41:20;19.10;99.90
52919;DHT22;38793;52.690;6.812;2023-05-07T10:43:47;19.00;99.90
52919;DHT22;38793;52.690;6.812;2023-05-07T10:46:15;18.90;99.90
52919;DHT22;38793;52.690;6.812;2023-05-07T10:51:33;18.50;99.90
52919;DHT22;38793;52.690;6.812;2023-05-07T10:56:41;18.60;99.90
52919;DHT22;38793;52.690;6.812;2023-05-07T11:01:57;18.70;99.90
52919;DHT22;38793;52.690;6.812;2023-05-07T11:04:24;18.90;99.90
52919;DHT22;38793;52.690;6.812;2023-05-07T11:12:17;19.10;99.90
52919;DHT22;38793;52.690;6.812;2023-05-07T11:14:43;19.10;99.90
52919;DHT22;38793;52.690;6.812;2023-05-07T11:17:10;19.10;99.90
52919;DHT22;38793;52.690;6.812;2023-05-07T11:19:55;19.30;99.90
52919;DHT22;38793;52.690;6.812;2023-05-07T11:25:02;19.30;99.90
52919;DHT22;38793;52.690;6.812;2023-05-07T11:27:32;19.30;99.90
52919;DHT22;38793;52.690;6.812;2023-05-07T11:29:58;19.30;99.90
52919;DHT22;38793;52.690;6.812;2023-05-07T11:32:30;19.40;99.90
52919;DHT22;38793;52.690;6.812;2023-05-07T11:34:58;19.40;99.90
52919;DHT22;38793;52.690;6.812;2023-05-07T11:37:26;19.50;99.90
52919;DHT22;38793;52.690;6.812;2023-05-07T11:40:13;19.60;99.90
52919;DHT22;38793;52.690;6.812;2023-05-07T11:42:40;19.90;99.90
52919;DHT22;38793;52.690;6.812;2023-05-07T11:45:07;19.90;99.90
52919;DHT22;38793;52.690;6.812;2023-05-07T11:47:33;19.90;99.90
52919;DHT22;38793;52.690;6.812;2023-05-07T11:50:04;19.70;99.90
52919;DHT22;38793;52.690;6.812;2023-05-07T11:52:30;19.70;99.90
52919;DHT22;38793;52.690;6.812;2023-05-07T11:54:58;19.70;99.90
52919;DHT22;38793;52.690;6.812;2023-05-07T11:57:26;19.70;99.90
52919;DHT22;38793;52.690;6.812;2023-05-07T11:59:55;19.50;99.90
52919;DHT22;38793;52.690;6.812;2023-05-07T12:02:21;19.40;99.90
52919;DHT22;38793;52.690;6.812;2023-05-07T12:04:47;19.40;99.90
52919;DHT22;38793;52.690;6.812;2023-05-07T12:07:14;19.40;99.90
52919;DHT22;38793;52.690;6.812;2023-05-07T12:09:44;19.50;99.90
52919;DHT22;38793;52.690;6.812;2023-05-07T12:12:09;19.60;99.90
52919;DHT22;38793;52.690;6.812;2023-05-07T12:14:42;19.80;99.90
52919;DHT22;38793;52.690;6.812;2023-05-07T12:17:09;19.80;99.90
52919;DHT22;38793;52.690;6.812;2023-05-07T12:19:36;19.80;99.90
52919;DHT22;38793;52.690;6.812;2023-05-07T12:22:03;19.80;99.90
52919;DHT22;38793;52.690;6.812;2023-05-07T12:24:30;19.80;99.90
52919;DHT22;38793;52.690;6.812;2023-05-07T12:27:06;19.90;99.90
52919;DHT22;38793;52.690;6.812;2023-05-07T12:29:32;20.10;99.90
52919;DHT22;38793;52.690;6.812;2023-05-07T12:31:58;20.20;99.90
52919;DHT22;38793;52.690;6.812;2023-05-07T12:34:24;20.10;99.90
52919;DHT22;38793;52.690;6.812;2023-05-07T12:36:49;20.00;99.90
52919;DHT22;38793;52.690;6.812;2023-05-07T12:39:15;20.00;99.90
52919;DHT22;38793;52.690;6.812;2023-05-07T12:41:57;20.10;99.90
52919;DHT22;38793;52.690;6.812;2023-05-07T12:44:33;20.30;99.90
52919;DHT22;38793;52.690;6.812;2023-05-07T12:47:02;20.30;99.90
52919;DHT22;38793;52.690;6.812;2023-05-07T12:49:28;20.00;99.90
52919;DHT22;38793;52.690;6.812;2023-05-07T12:51:54;19.70;99.90
52919;DHT22;38793;52.690;6.812;2023-05-07T12:54:34;19.40;99.90
52919;DHT22;38793;52.690;6.812;2023-05-07T12:57:04;19.20;99.90
52919;DHT22;38793;52.690;6.812;2023-05-07T12:59:40;19.10;99.90
52919;DHT22;38793;52.690;6.812;2023-05-07T13:02:07;19.20;99.90
52919;DHT22;38793;52.690;6.812;2023-05-07T13:04:33;19.10;99.90
52919;DHT22;38793;52.690;6.812;2023-05-07T13:06:59;19.10;99.90
52919;DHT22;38793;52.690;6.812;2023-05-07T13:09:25;19.10;99.90
52919;DHT22;38793;52.690;6.812;2023-05-07T13:11:50;19.10;99.90
52919;DHT22;38793;52.690;6.812;2023-05-07T13:14:16;19.20;99.90
52919;DHT22;38793;52.690;6.812;2023-05-07T13:16:42;19.20;99.90
52919;DHT22;38793;52.690;6.812;2023-05-07T13:19:07;19.20;99.90
52919;DHT22;38793;52.690;6.812;2023-05-07T13:21:33;19.20;99.90
52919;DHT22;38793;52.690;6.812;2023-05-07T13:23:59;19.40;99.90
52919;DHT22;38793;52.690;6.812;2023-05-07T13:26:25;19.40;99.90
52919;DHT22;38793;52.690;6.812;2023-05-07T13:28:51;19.40;99.90
52919;DHT22;38793;52.690;6.812;2023-05-07T13:31:17;19.40;99.90
52919;DHT22;38793;52.690;6.812;2023-05-07T13:33:43;19.40;99.90
52919;DHT22;38793;52.690;6.812;2023-05-07T13:36:09;19.40;99.90
52919;DHT22;38793;52.690;6.812;2023-05-07T13:38:34;19.40;99.90
52919;DHT22;38793;52.690;6.812;2023-05-07T13:41:00;19.50;99.90
52919;DHT22;38793;52.690;6.812;2023-05-07T13:43:26;19.60;99.90
52919;DHT22;38793;52.690;6.812;2023-05-07T13:45:51;19.70;99.90
52919;DHT22;38793;52.690;6.812;2023-05-07T13:48:17;19.70;99.90
52919;DHT22;38793;52.690;6.812;2023-05-07T13:50:42;19.80;99.90
52919;DHT22;38793;52.690;6.812;2023-05-07T13:53:08;19.80;99.90
52919;DHT22;38793;52.690;6.812;2023-05-07T13:55:33;19.80;99.90
52919;DHT22;38793;52.690;6.812;2023-05-07T13:58:00;19.60;99.90
52919;DHT22;38793;52.690;6.812;2023-05-07T14:00:27;19.50;99.90
52919;DHT22;38793;52.690;6.812;2023-05-07T14:02:53;19.50;99.90
52919;DHT22;38793;52.690;6.812;2023-05-07T14:05:19;19.40;99.90
52919;DHT22;38793;52.690;6.812;2023-05-07T14:07:45;19.20;99.90
52919;DHT22;38793;52.690;6.812;2023-05-07T14:10:10;19.10;99.90
52919;DHT22;38793;52.690;6.812;2023-05-07T14:12:37;19.00;99.90
52919;DHT22;38793;52.690;6.812;2023-05-07T14:15:03;18.90;99.90
52919;DHT22;38793;52.690;6.812;2023-05-07T14:17:28;18.70;99.90
52919;DHT22;38793;52.690;6.812;2023-05-07T14:19:55;18.60;99.90
52919;DHT22;38793;52.690;6.812;2023-05-07T14:22:21;18.60;99.90
52919;DHT22;38793;52.690;6.812;2023-05-07T14:24:50;18.70;99.90
52919;DHT22;38793;52.690;6.812;2023-05-07T14:27:16;18.70;99.90
52919;DHT22;38793;52.690;6.812;2023-05-07T14:29:41;18.80;99.90
52919;DHT22;38793;52.690;6.812;2023-05-07T14:32:07;18.80;99.90
52919;DHT22;38793;52.690;6.812;2023-05-07T14:34:33;18.80;99.90
52919;DHT22;38793;52.690;6.812;2023-05-07T14:37:00;18.80;99.90
52919;DHT22;38793;52.690;6.812;2023-05-07T14:39:25;18.80;99.90
52919;DHT22;38793;52.690;6.812;2023-05-07T14:41:51;18.80;99.90
52919;DHT22;38793;52.690;6.812;2023-05-07T14:44:20;18.90;99.90
52919;DHT22;38793;52.690;6.812;2023-05-07T14:46:45;19.00;99.90
52919;DHT22;38793;52.690;6.812;2023-05-07T14:49:11;19.00;99.90
52919;DHT22;38793;52.690;6.812;2023-05-07T14:51:45;19.10;99.90
52919;DHT22;38793;52.690;6.812;2023-05-07T14:54:12;19.20;99.90
52919;DHT22;38793;52.690;6.812;2023-05-07T14:56:38;19.20;99.90
52919;DHT22;38793;52.690;6.812;2023-05-07T14:59:03;19.30;99.90
52919;DHT22;38793;52.690;6.812;2023-05-07T15:01:29;19.40;99.90
52919;DHT22;38793;52.690;6.812;2023-05-07T15:03:55;19.50;99.90
52919;DHT22;38793;52.690;6.812;2023-05-07T15:06:21;19.50;99.90
52919;DHT22;38793;52.690;6.812;2023-05-07T15:08:47;19.50;99.90
52919;DHT22;38793;52.690;6.812;2023-05-07T15:11:14;19.50;99.90
52919;DHT22;38793;52.690;6.812;2023-05-07T15:13:39;19.50;99.90
52919;DHT22;38793;52.690;6.812;2023-05-07T15:16:05;19.50;99.90
52919;DHT22;38793;52.690;6.812;2023-05-07T15:18:30;19.50;99.90
52919;DHT22;38793;52.690;6.812;2023-05-07T15:20:56;19.60;99.90
52919;DHT22;38793;52.690;6.812;2023-05-07T15:23:23;19.60;99.90
52919;DHT22;38793;52.690;6.812;2023-05-07T15:25:48;19.50;99.90
52919;DHT22;38793;52.690;6.812;2023-05-07T15:28:14;19.50;99.90
52919;DHT22;38793;52.690;6.812;2023-05-07T15:30:39;19.40;99.90
52919;DHT22;38793;52.690;6.812;2023-05-07T15:33:05;19.40;99.90
52919;DHT22;38793;52.690;6.812;2023-05-07T15:35:31;19.40;99.90
52919;DHT22;38793;52.690;6.812;2023-05-07T15:37:56;19.30;99.90
52919;DHT22;38793;52.690;6.812;2023-05-07T15:40:22;19.30;99.90
52919;DHT22;38793;52.690;6.812;2023-05-07T15:42:48;19.30;99.90
52919;DHT22;38793;52.690;6.812;2023-05-07T15:45:14;19.10;99.90
52919;DHT22;38793;52.690;6.812;2023-05-07T15:47:39;19.00;99.90
52919;DHT22;38793;52.690;6.812;2023-05-07T15:50:06;18.90;99.90
52919;DHT22;38793;52.690;6.812;2023-05-07T15:52:31;18.80;99.90